Time;durP1;ratioP1;P1;durP2;ratioP2;P2;SDS_P1;SDS_P2;PMS_P1;PMS_P2;Temp;Humidity;BMP_temperature;BMP_pressure;BME280_temperature;BME280_humidity;BME280_pressure;Samples;Min_cycle;Max_cycle;Signal;HPM_P1;HPM_P2
2022/07/17 00:03:00;;;;;;;7.97;7.10;;;;;;;20.88;66.98;101763.75;7402363;19;20099;-59
2022/07/17 00:05:48;;;;;;;10.32;7.70;;;;;;;20.80;67.46;101748.00;7401415;19;20476;-59
2022/07/17 00:08:15;;;;;;;9.20;7.18;;;;;;;20.85;67.64;101763.72;7399029;19;20014;-59
2022/07/17 00:14:05;;;;;;;17.37;9.27;;;;;;;20.88;67.31;101757.31;7393850;19;20018;-58
2022/07/17 00:16:57;;;;;;;10.55;7.00;;;;;;;20.76;68.09;101764.03;7400910;19;20022;-60
2022/07/17 00:19:26;;;;;;;11.77;8.05;;;;;;;20.69;68.54;101764.00;7400982;19;20372;-59
2022/07/17 00:21:53;;;;;;;14.15;7.35;;;;;;;20.61;68.60;101759.50;7401735;19;20027;-58
2022/07/17 00:24:21;;;;;;;9.43;7.38;;;;;;;20.66;68.84;101764.75;7400468;19;20044;-60
2022/07/17 00:26:51;;;;;;;7.95;6.88;;;;;;;20.67;68.64;101757.94;7399099;19;20464;-59
2022/07/17 00:29:19;;;;;;;10.05;7.35;;;;;;;20.63;69.27;101755.09;7399759;19;20013;-60
2022/07/17 00:31:48;;;;;;;9.30;6.80;;;;;;;20.64;69.27;101748.28;7399194;19;20015;-59
2022/07/17 00:34:16;;;;;;;7.22;5.95;;;;;;;20.65;69.36;101747.06;7399274;19;20037;-61
2022/07/17 00:36:43;;;;;;;9.02;6.57;;;;;;;20.67;69.11;101734.63;7398427;19;20505;-59
2022/07/17 00:39:11;;;;;;;10.90;6.50;;;;;;;20.65;68.64;101733.00;7399886;19;20014;-60
2022/07/17 00:41:39;;;;;;;9.63;6.05;;;;;;;20.59;68.37;101726.13;7397410;19;20018;-60
2022/07/17 00:44:09;;;;;;;7.80;5.50;;;;;;;20.55;68.84;101711.22;7400676;19;20096;-60
2022/07/17 00:46:36;;;;;;;7.60;5.45;;;;;;;20.49;68.79;101709.16;7401767;19;20014;-61
2022/07/17 00:59:19;;;;;;;5.93;4.93;;;;;;;20.30;68.54;101682.09;7395838;19;20015;-60
2022/07/17 01:05:19;;;;;;;7.85;5.20;;;;;;;20.15;69.20;101668.25;7397290;19;20388;-62
2022/07/17 01:07:48;;;;;;;8.43;4.43;;;;;;;20.12;69.44;101669.81;7399800;19;20040;-60
2022/07/17 01:10:17;;;;;;;8.27;5.47;;;;;;;20.12;68.98;101661.38;7400600;19;20036;-61
2022/07/17 01:12:47;;;;;;;6.65;5.65;;;;;;;20.06;69.44;101654.53;7396412;19;20014;-60
2022/07/17 01:15:15;;;;;;;6.20;4.10;;;;;;;20.03;69.61;101649.66;7399450;19;20059;-61
2022/07/17 01:17:44;;;;;;;6.03;4.55;;;;;;;19.95;69.31;101626.31;7398787;19;20017;-61
2022/07/17 01:20:12;;;;;;;5.90;4.50;;;;;;;19.90;69.11;101620.25;7398053;19;20471;-61
2022/07/17 01:22:48;;;;;;;6.20;4.60;;;;;;;19.81;69.56;101617.75;7397702;19;20538;-61
2022/07/17 01:25:21;;;;;;;7.00;4.70;;;;;;;19.80;69.55;101618.13;7398171;19;20040;-61
2022/07/17 01:27:49;;;;;;;4.28;3.22;;;;;;;19.76;69.53;101595.63;7397890;19;20011;-61
2022/07/17 01:30:17;;;;;;;6.25;4.68;;;;;;;19.71;69.60;101604.41;7396428;19;20464;-60
2022/07/17 01:36:22;;;;;;;8.20;5.15;;;;;;;19.60;70.21;101603.47;7394071;19;20010;-61
2022/07/17 01:42:16;;;;;;;6.32;4.97;;;;;;;19.66;69.41;101603.94;7397984;19;20011;-61
2022/07/17 01:44:43;;;;;;;6.95;4.57;;;;;;;19.66;69.84;101603.94;7397247;19;20357;-61
2022/07/17 01:47:14;;;;;;;6.82;4.60;;;;;;;19.62;69.92;101617.16;7395852;19;20015;-62
2022/07/17 01:49:50;;;;;;;5.50;4.68;;;;;;;19.54;70.54;101615.47;7399187;19;20006;-62
2022/07/17 01:59:45;;;;;;;9.45;4.25;;;;;;;19.56;70.65;101625.13;7397372;19;20348;-61
2022/07/17 02:06:13;;;;;;;4.13;3.60;;;;;;;19.54;70.52;101613.44;7395482;19;20022;-61
2022/07/17 02:08:41;;;;;;;4.57;3.75;;;;;;;19.59;70.02;101613.09;7399534;19;20040;-60
2022/07/17 02:11:29;;;;;;;4.75;3.72;;;;;;;19.57;69.56;101604.25;7398000;19;20335;-62
2022/07/17 02:14:17;;;;;;;6.47;3.58;;;;;;;19.52;70.10;101595.34;7396572;19;20461;-62
2022/07/17 02:17:05;;;;;;;7.50;3.90;;;;;;;19.53;69.71;101609.03;7398773;19;20014;-61
2022/07/17 02:19:54;;;;;;;7.63;5.40;;;;;;;19.53;69.71;101600.59;7397385;19;20014;-62
2022/07/17 02:22:41;;;;;;;7.03;4.25;;;;;;;19.48;69.62;101603.75;7396443;19;20014;-62
2022/07/17 02:25:29;;;;;;;4.30;3.65;;;;;;;19.49;69.54;101608.16;7398458;19;20500;-61
2022/07/17 02:28:17;;;;;;;9.07;5.50;;;;;;;19.46;68.96;101608.94;7397948;19;20023;-61
2022/07/17 02:31:01;;;;;;;5.72;3.45;;;;;;;19.40;69.46;101610.50;7390652;19;20022;-61
2022/07/17 02:33:29;;;;;;;3.90;3.25;;;;;;;19.49;69.47;101618.59;7394306;19;20010;-62
2022/07/17 02:39:51;;;;;;;6.85;3.75;;;;;;;19.52;68.54;101632.69;7395880;19;20078;-61
2022/07/17 02:42:46;;;;;;;6.57;3.35;;;;;;;19.45;68.51;101635.44;7395558;19;20062;-62
2022/07/17 02:48:50;;;;;;;5.45;3.00;;;;;;;19.44;68.14;101640.22;7396816;19;20010;-62
2022/07/17 02:51:18;;;;;;;6.15;3.38;;;;;;;19.42;68.23;101639.00;7394012;19;20007;-60
2022/07/17 02:53:45;;;;;;;6.63;3.50;;;;;;;19.39;67.88;101642.56;7395999;19;20506;-62
2022/07/17 02:59:59;;;;;;;5.20;2.72;;;;;;;19.19;68.00;101643.91;7400592;19;20010;-61
2022/07/17 03:02:47;;;;;;;6.35;2.50;;;;;;;19.15;68.03;101643.03;7401318;19;20468;-62
2022/07/17 03:05:16;;;;;;;5.95;3.28;;;;;;;19.16;67.30;101656.72;7402793;19;20650;-62
2022/07/17 03:07:44;;;;;;;4.68;2.78;;;;;;;19.20;67.64;101646.31;7403194;19;20010;-61
2022/07/17 03:10:12;;;;;;;5.13;2.90;;;;;;;19.28;67.06;101652.81;7404270;19;20379;-62
2022/07/17 03:16:05;;;;;;;4.65;3.42;;;;;;;19.25;67.26;101656.41;7395803;19;20019;-62
2022/07/17 03:18:33;;;;;;;4.47;2.92;;;;;;;19.21;67.10;101647.13;7401312;19;20021;-62
2022/07/17 03:21:00;;;;;;;6.72;2.88;;;;;;;19.18;66.71;101647.91;7401470;19;20007;-63
2022/07/17 03:23:28;;;;;;;4.00;2.75;;;;;;;19.18;66.58;101642.28;7402961;19;20007;-62
2022/07/17 03:25:56;;;;;;;7.57;3.95;;;;;;;19.19;66.42;101636.31;7401564;19;20494;-62
2022/07/17 03:35:23;;;;;;;9.77;3.45;;;;;;;19.15;65.50;101632.63;7402087;19;20007;-62
2022/07/17 03:45:25;;;;;;;6.28;3.30;;;;;;;19.06;65.98;101645.34;7401523;19;20011;-62
2022/07/17 03:47:53;;;;;;;3.83;2.83;;;;;;;19.04;65.92;101642.09;7402762;19;20006;-62
2022/07/17 03:50:21;;;;;;;5.80;2.70;;;;;;;19.02;66.69;101644.47;7401095;19;20066;-62
2022/07/17 03:52:48;;;;;;;4.20;2.72;;;;;;;18.95;66.55;101633.97;7398522;19;20007;-62
2022/07/17 03:55:16;;;;;;;3.35;2.25;;;;;;;18.92;66.79;101639.53;7398695;19;20472;-62
2022/07/17 03:57:43;;;;;;;3.63;2.83;;;;;;;18.88;67.04;101638.69;7401888;19;20348;-62
2022/07/17 04:00:11;;;;;;;3.92;2.58;;;;;;;18.83;67.33;101631.38;7399963;19;20019;-62
2022/07/17 04:02:38;;;;;;;2.97;2.45;;;;;;;18.81;67.00;101637.38;7401231;19;20011;-62
2022/07/17 04:15:56;;;;;;;3.58;3.03;;;;;;;18.63;67.04;101646.75;7397871;19;20357;-62
2022/07/17 04:18:33;;;;;;;3.00;2.55;;;;;;;18.67;66.91;101642.78;7400111;19;20403;-62
2022/07/17 04:21:06;;;;;;;3.88;3.28;;;;;;;18.63;67.08;101644.75;7398608;19;20014;-61
2022/07/17 04:23:34;;;;;;;3.38;2.58;;;;;;;18.60;67.24;101633.47;7401981;19;20026;-62
2022/07/17 04:33:18;;;;;;;4.65;3.20;;;;;;;18.55;67.73;101626.19;7396136;19;20017;-62
2022/07/17 04:35:46;;;;;;;5.18;2.78;;;;;;;18.56;68.02;101627.78;7397657;19;20022;-61
2022/07/17 04:38:13;;;;;;;4.40;2.55;;;;;;;18.59;67.77;101621.44;7401800;19;20011;-62
2022/07/17 04:40:41;;;;;;;4.72;2.92;;;;;;;18.53;67.78;101628.53;7398806;19;20003;-62
2022/07/17 04:43:08;;;;;;;3.75;3.00;;;;;;;18.48;68.36;101631.69;7401680;19;20002;-62
2022/07/17 04:45:36;;;;;;;10.00;2.97;;;;;;;18.48;68.50;101637.28;7398539;19;20423;-63
2022/07/17 04:48:03;;;;;;;5.03;3.45;;;;;;;18.45;68.35;101635.22;7400437;19;20006;-62
2022/07/17 04:50:31;;;;;;;5.07;3.30;;;;;;;18.48;68.48;101639.31;7399496;19;20003;-62
2022/07/17 04:53:00;;;;;;;4.65;2.70;;;;;;;18.47;68.58;101635.69;7399436;19;20531;-62
2022/07/17 04:55:28;;;;;;;4.95;3.00;;;;;;;18.47;68.51;101635.69;7398969;19;20010;-62
2022/07/17 04:57:56;;;;;;;7.43;3.72;;;;;;;18.51;68.66;101633.72;7397362;19;20044;-61
2022/07/17 05:04:04;;;;;;;3.85;3.03;;;;;;;18.54;68.30;101624.56;7398000;19;20352;-63
2022/07/17 05:06:31;;;;;;;4.07;2.63;;;;;;;18.53;69.02;101625.75;7393136;19;20014;-62
2022/07/17 05:19:14;;;;;;;5.10;2.55;;;;;;;18.69;68.66;101620.78;7392784;19;20014;-61
2022/07/17 05:21:41;;;;;;;2.95;2.58;;;;;;;18.68;69.10;101612.75;7397301;19;20045;-62
2022/07/17 05:24:09;;;;;;;5.25;2.80;;;;;;;18.73;68.90;101616.03;7397582;19;20003;-62
2022/07/17 05:26:37;;;;;;;4.97;3.47;;;;;;;18.74;69.36;101620.44;7399017;19;20400;-62
2022/07/17 05:29:04;;;;;;;4.00;2.67;;;;;;;18.75;69.17;101618.44;7396879;19;20018;-61
2022/07/17 05:38:22;;;;;;;6.18;3.55;;;;;;;18.85;69.25;101607.38;7395803;19;20439;-62
2022/07/17 05:44:44;;;;;;;6.95;2.78;;;;;;;18.90;69.35;101597.03;7399420;19;20010;-62
2022/07/17 05:47:11;;;;;;;5.68;2.78;;;;;;;18.95;69.07;101593.88;7397865;19;20011;-62
2022/07/17 05:49:39;;;;;;;2.88;2.35;;;;;;;18.99;68.99;101595.53;7399024;19;20011;-62
2022/07/17 06:02:40;;;;;;;2.90;2.28;;;;;;;19.20;68.39;101572.50;7392891;19;20007;-62
2022/07/17 06:08:33;;;;;;;4.10;2.40;;;;;;;19.24;67.74;101584.59;7395970;19;20015;-62
2022/07/17 06:11:21;;;;;;;3.47;2.90;;;;;;;19.28;67.59;101579.81;7400189;19;20460;-62
2022/07/17 06:17:55;;;;;;;3.70;1.83;;;;;;;19.37;67.05;101594.38;7397771;19;20006;-61
2022/07/17 06:20:22;;;;;;;2.88;1.95;;;;;;;19.40;66.29;101591.66;7397037;19;20026;-62
2022/07/17 06:22:50;;;;;;;3.53;2.05;;;;;;;19.45;66.25;101598.91;7396736;19;20003;-61
2022/07/17 06:25:17;;;;;;;3.15;2.08;;;;;;;19.49;66.03;101602.56;7398007;19;20010;-61
2022/07/17 06:27:45;;;;;;;2.00;1.80;;;;;;;19.49;66.33;101596.94;7396080;19;20394;-62
2022/07/17 06:33:43;;;;;;;2.28;2.08;;;;;;;19.61;65.48;101599.50;7399255;19;20480;-61
2022/07/17 06:36:10;;;;;;;2.63;2.30;;;;;;;19.64;65.35;101600.72;7405428;19;20025;-61
2022/07/17 06:38:39;;;;;;;2.50;2.30;;;;;;;19.65;64.78;101599.50;7402455;19;20468;-61
2022/07/17 06:41:07;;;;;;;3.03;1.92;;;;;;;19.65;64.68;101594.69;7405082;19;20375;-62
2022/07/17 06:43:34;;;;;;;2.90;2.35;;;;;;;19.68;64.84;101599.53;7403483;19;20011;-61
2022/07/17 06:46:02;;;;;;;3.13;2.38;;;;;;;19.71;64.39;101604.41;7402137;19;20011;-63
2022/07/17 06:55:31;;;;;;;3.08;2.47;;;;;;;19.70;64.10;101608.41;7401290;19;20007;-60
2022/07/17 06:57:58;;;;;;;3.10;2.30;;;;;;;19.75;63.79;101610.84;7404688;19;20006;-61
2022/07/17 07:04:13;;;;;;;4.38;2.65;;;;;;;19.77;64.06;101618.91;7400406;19;20014;-61
2022/07/17 07:06:41;;;;;;;3.30;2.75;;;;;;;19.84;64.46;101625.41;7401277;19;20059;-61
2022/07/17 07:09:38;;;;;;;2.88;2.47;;;;;;;19.88;63.92;101611.41;7402604;19;20077;-61
2022/07/17 07:12:07;;;;;;;2.97;2.70;;;;;;;19.92;64.01;101624.28;7403356;19;20036;-60
2022/07/17 07:14:37;;;;;;;3.47;3.13;;;;;;;19.99;63.83;101626.31;7403298;19;20010;-59
2022/07/17 07:24:02;;;;;;;3.40;2.95;;;;;;;20.22;63.92;101623.31;7402048;19;20472;-60
2022/07/17 07:33:20;;;;;;;3.45;2.35;;;;;;;20.44;63.76;101611.84;7398524;19;20011;-59
2022/07/17 07:43:03;;;;;;;4.75;2.83;;;;;;;20.79;64.24;101618.91;7399143;19;20018;-60
2022/07/17 07:45:40;;;;;;;3.38;2.67;;;;;;;20.85;64.07;101623.78;7397505;19;20010;-59
2022/07/17 07:48:09;;;;;;;4.38;2.67;;;;;;;20.94;64.16;101627.03;7403466;19;20058;-60
2022/07/17 07:50:43;;;;;;;4.90;3.00;;;;;;;21.07;64.38;101619.09;7401695;19;20015;-59
2022/07/17 07:53:10;;;;;;;3.90;2.75;;;;;;;21.26;64.83;101620.78;7400531;19;20015;-61
2022/07/17 07:59:04;;;;;;;5.43;3.25;;;;;;;21.84;65.99;101616.47;7388275;19;20014;-58
2022/07/17 08:01:31;;;;;;;4.40;3.00;;;;;;;22.27;65.63;101617.34;7397521;19;20042;-58
2022/07/17 08:07:59;;;;;;;4.22;3.20;;;;;;;23.53;63.44;101617.41;7396296;19;20007;-60
2022/07/17 08:14:13;;;;;;;4.10;3.20;;;;;;;24.70;58.81;101608.78;7395806;19;20533;-56
2022/07/17 08:20:20;;;;;;;4.43;3.10;;;;;;;25.74;55.64;101593.66;7399904;19;20007;-58
2022/07/17 08:29:46;;;;;;;3.40;2.63;;;;;;;26.26;52.51;101562.03;7392237;19;20471;-62
2022/07/17 08:39:54;;;;;;;2.40;2.10;;;;;;;25.17;51.98;101547.50;7399634;19;20006;-59
2022/07/17 08:46:00;;;;;;;4.55;2.88;;;;;;;25.86;51.71;101542.03;7397852;19;20035;-60
2022/07/17 08:59:22;;;;;;;3.83;3.05;;;;;;;26.71;50.40;101531.94;7399770;19;20011;-61
2022/07/17 09:05:57;;;;;;;5.38;2.67;;;;;;;27.71;49.06;101525.66;7395384;19;20017;-59
2022/07/17 09:12:36;;;;;;;5.27;2.80;;;;;;;27.45;48.18;101506.78;7400611;19;20011;-59
2022/07/17 09:20:01;;;;;;;5.07;2.90;;;;;;;27.62;46.61;101502.69;7393373;19;20018;-59
2022/07/17 09:26:28;;;;;;;4.03;2.30;;;;;;;27.89;46.22;101506.06;7384224;19;20470;-59
2022/07/17 09:29:48;;;;;;;4.82;3.13;;;;;;;27.84;45.05;101495.22;7399501;19;20010;-59
2022/07/17 09:32:41;;;;;;;5.18;3.20;;;;;;;28.00;45.88;101498.06;7399118;19;20344;-60
2022/07/17 09:35:29;;;;;;;3.70;2.70;;;;;;;28.08;45.10;101501.53;7397874;19;20017;-59
2022/07/17 09:42:06;;;;;;;4.95;2.88;;;;;;;28.59;44.44;101497.69;7395614;19;20011;-58
2022/07/17 09:48:48;;;;;;;3.03;2.33;;;;;;;28.56;43.36;101483.53;7400196;19;20467;-59
2022/07/17 09:51:38;;;;;;;8.75;3.53;;;;;;;28.10;44.55;101482.78;7398179;19;20333;-59
2022/07/17 09:54:09;;;;;;;4.00;2.85;;;;;;;28.09;44.94;101480.38;7397647;19;20010;-59
2022/07/17 10:00:16;;;;;;;4.57;2.70;;;;;;;28.30;43.56;101474.88;7397388;19;20011;-59
2022/07/17 10:03:10;;;;;;;4.15;2.78;;;;;;;28.33;44.69;101479.69;7399517;19;20017;-59
2022/07/17 10:05:59;;;;;;;3.78;2.63;;;;;;;28.38;44.59;101475.50;7398490;19;20031;-58
2022/07/17 10:12:17;;;;;;;5.75;3.00;;;;;;;28.19;44.13;101479.28;7403797;19;20007;-59
2022/07/17 10:15:07;;;;;;;3.63;3.33;;;;;;;28.28;43.93;101483.06;7406599;19;20712;-58
2022/07/17 10:18:06;;;;;;;3.08;2.83;;;;;;;28.31;43.25;101476.47;7406540;19;20029;-59
2022/07/17 10:21:06;;;;;;;2.80;2.53;;;;;;;28.27;43.35;101475.00;7407733;19;20474;-59
2022/07/17 10:23:53;;;;;;;3.00;2.47;;;;;;;28.26;43.64;101474.19;7407025;19;20010;-59
2022/07/17 10:26:43;;;;;;;4.88;3.00;;;;;;;28.18;43.45;101472.78;7401913;19;20007;-59
2022/07/17 10:33:16;;;;;;;2.90;2.25;;;;;;;28.33;43.48;101468.28;7398206;19;20085;-60
2022/07/17 10:42:56;;;;;;;4.75;2.97;;;;;;;27.71;44.12;101463.84;7405012;19;20034;-58
2022/07/17 10:45:25;;;;;;;6.47;2.83;;;;;;;27.55;44.29;101469.56;7404376;19;20006;-59
2022/07/17 10:48:19;;;;;;;7.95;4.25;;;;;;;27.46;44.61;101466.50;7406025;19;20489;-59
2022/07/17 10:51:07;;;;;;;3.67;2.78;;;;;;;27.45;44.43;101469.81;7404165;19;20017;-59
2022/07/17 10:53:59;;;;;;;5.30;2.78;;;;;;;27.53;44.66;101459.88;7402378;19;20416;-58
2022/07/17 11:01:10;;;;;;;5.18;2.78;;;;;;;27.22;45.00;101467.88;7405324;19;20019;-59
2022/07/17 11:07:54;;;;;;;4.82;2.65;;;;;;;27.12;44.83;101469.75;7402734;19;20015;-59
2022/07/17 11:10:42;;;;;;;4.25;2.15;;;;;;;27.01;44.80;101452.13;7405798;19;20015;-59
2022/07/17 11:13:30;;;;;;;3.45;2.38;;;;;;;26.99;45.23;101442.44;7403811;19;20021;-59
2022/07/17 11:21:01;;;;;;;4.50;2.72;;;;;;;26.93;45.29;101435.69;7404314;19;20077;-59
2022/07/17 11:27:29;;;;;;;6.45;2.55;;;;;;;26.61;45.48;101430.69;7393007;19;20010;-60
2022/07/17 11:29:59;;;;;;;2.75;2.05;;;;;;;26.55;45.88;101436.09;7398603;19;20044;-60
2022/07/17 11:32:35;;;;;;;5.80;2.65;;;;;;;26.65;45.75;101434.25;7397987;19;20019;-61
2022/07/17 11:35:29;;;;;;;6.80;2.60;;;;;;;26.59;44.82;101430.31;7399651;19;20086;-60
2022/07/17 11:38:30;;;;;;;5.93;3.13;;;;;;;26.58;45.58;101423.06;7404663;19;20025;-56
2022/07/17 11:41:18;;;;;;;5.40;2.60;;;;;;;26.66;45.39;101430.19;7403938;19;20019;-58
2022/07/17 11:44:12;;;;;;;7.82;3.50;;;;;;;26.63;45.56;101427.41;7402572;19;20011;-57
2022/07/17 11:47:00;;;;;;;3.67;2.67;;;;;;;26.66;45.21;101418.81;7401925;19;20014;-58
2022/07/17 12:00:12;;;;;;;4.13;2.30;;;;;;;26.67;44.48;101408.25;7399342;19;20029;-57
2022/07/17 12:02:40;;;;;;;5.47;2.90;;;;;;;26.55;44.31;101407.69;7399543;19;20464;-60
2022/07/17 12:05:08;;;;;;;5.75;2.85;;;;;;;26.49;44.18;101402.97;7399758;19;20015;-58
2022/07/17 12:07:47;;;;;;;4.75;2.53;;;;;;;26.47;44.32;101399.75;7398692;19;20010;-57
2022/07/17 12:10:21;;;;;;;6.43;2.92;;;;;;;26.51;44.47;101400.47;7401843;19;20341;-56
2022/07/17 12:12:58;;;;;;;5.25;2.20;;;;;;;26.62;44.84;101395.34;7399389;19;20018;-47
2022/07/17 12:26:07;;;;;;;5.60;2.35;;;;;;;26.88;42.79;101377.34;7399690;19;20329;-57
2022/07/17 12:28:35;;;;;;;6.10;3.40;;;;;;;26.94;43.51;101377.59;7401787;19;20006;-57
2022/07/17 12:38:28;;;;;;;6.80;2.83;;;;;;;26.89;43.36;101369.63;7391784;19;20476;-58
2022/07/17 12:41:16;;;;;;;7.95;3.05;;;;;;;26.63;43.80;101362.09;7398249;19;20017;-58
2022/07/17 12:43:45;;;;;;;6.07;2.50;;;;;;;26.40;43.54;101360.94;7397119;19;20013;-55
2022/07/17 12:49:54;;;;;;;4.40;2.53;;;;;;;26.30;44.22;101358.34;7399137;19;20015;-58
2022/07/17 12:52:42;;;;;;;7.72;3.13;;;;;;;26.39;43.87;101364.25;7402026;19;20372;-58
2022/07/17 13:02:40;;;;;;;4.07;2.90;;;;;;;26.13;44.90;101357.50;7396442;19;20003;-56
2022/07/17 13:05:28;;;;;;;4.97;2.88;;;;;;;26.15;45.11;101349.34;7396923;19;20002;-61
2022/07/17 13:07:56;;;;;;;4.35;2.25;;;;;;;26.18;45.44;101345.63;7396779;19;20014;-59
2022/07/17 13:10:25;;;;;;;7.15;2.83;;;;;;;26.33;44.90;101341.25;7395077;19;20014;-58
2022/07/17 13:12:54;;;;;;;7.00;3.33;;;;;;;26.46;45.42;101335.69;7396805;19;20394;-58
2022/07/17 13:19:26;;;;;;;5.40;3.00;;;;;;;26.73;45.04;101327.75;7397141;19;20018;-60
2022/07/17 13:21:54;;;;;;;5.47;2.67;;;;;;;27.18;44.79;101337.22;7397052;19;20018;-58
2022/07/17 13:24:21;;;;;;;7.47;2.58;;;;;;;27.52;44.20;101327.41;7400896;19;20011;-58
2022/07/17 13:26:49;;;;;;;5.72;2.50;;;;;;;27.75;43.83;101330.00;7397691;19;20021;-59
2022/07/17 13:29:17;;;;;;;15.50;3.10;;;;;;;27.91;43.67;101324.25;7400100;19;20006;-59
2022/07/17 13:35:31;;;;;;;5.30;2.97;;;;;;;28.52;43.40;101306.97;7398924;19;20011;-58
2022/07/17 13:38:02;;;;;;;8.25;2.65;;;;;;;28.73;42.44;101303.47;7396202;19;20011;-57
2022/07/17 13:44:14;;;;;;;4.00;2.20;;;;;;;29.05;41.28;101302.41;7397550;19;20346;-58
2022/07/17 13:46:41;;;;;;;7.03;3.33;;;;;;;29.17;41.47;101310.16;7397166;19;20010;-57
2022/07/17 13:49:29;;;;;;;6.72;2.67;;;;;;;29.32;41.47;101307.63;7397391;19;20038;-53
2022/07/17 13:55:28;;;;;;;5.95;3.03;;;;;;;29.40;41.06;101298.38;7389306;19;20376;-57
2022/07/17 14:16:23;;;;;;;5.47;2.83;;;;;;;30.42;39.37;101262.28;7391918;19;20015;-58
2022/07/17 14:19:11;;;;;;;5.85;2.90;;;;;;;30.29;39.52;101264.41;7390804;19;20461;-57
2022/07/17 14:21:58;;;;;;;3.47;2.67;;;;;;;30.26;39.41;101265.38;7387047;19;20015;-57
2022/07/17 14:47:55;;;;;;;7.13;3.97;;;;;;;30.29;38.40;101270.13;7378930;19;20042;-52
2022/07/17 14:54:44;;;;;;;4.73;2.60;;;;;;;30.35;38.82;101251.13;7397579;19;20010;-44
2022/07/17 14:57:12;;;;;;;5.90;2.78;;;;;;;30.30;38.60;101257.44;7401369;19;20026;-51
2022/07/17 14:59:39;;;;;;;7.03;3.20;;;;;;;30.35;38.53;101265.41;7404034;19;20021;-53
2022/07/17 15:02:07;;;;;;;5.82;2.33;;;;;;;30.47;38.67;101258.03;7402726;19;20023;-50
2022/07/17 15:04:36;;;;;;;9.10;3.47;;;;;;;30.63;38.56;101260.66;7403955;19;20538;-50
2022/07/17 15:10:29;;;;;;;10.20;3.10;;;;;;;30.56;38.93;101261.72;7399900;19;20019;-50
2022/07/17 15:12:56;;;;;;;8.77;2.97;;;;;;;30.53;39.00;101256.94;7403496;19;20384;-49
2022/07/17 15:15:23;;;;;;;3.80;2.28;;;;;;;30.54;38.63;101247.13;7398727;19;20041;-50
2022/07/17 15:17:51;;;;;;;4.90;2.53;;;;;;;30.50;39.08;101257.09;7401547;19;20015;-49
2022/07/17 15:20:20;;;;;;;6.03;2.47;;;;;;;30.53;38.72;101245.50;7404630;19;20026;-48
2022/07/17 15:22:47;;;;;;;5.88;3.42;;;;;;;30.32;39.20;101252.06;7402545;19;20374;-52
2022/07/17 15:25:15;;;;;;;5.20;2.70;;;;;;;30.07;39.32;101241.66;7404092;19;20007;-48
2022/07/17 15:27:42;;;;;;;5.53;3.28;;;;;;;29.99;39.62;101234.63;7398255;19;20007;-49
2022/07/17 15:30:10;;;;;;;5.25;3.00;;;;;;;29.91;40.17;101235.34;7401267;19;20007;-54
2022/07/17 15:36:24;;;;;;;8.25;2.88;;;;;;;29.64;40.31;101226.56;7401600;19;20017;-56
2022/07/17 15:42:43;;;;;;;5.28;2.78;;;;;;;29.66;40.80;101215.47;7404265;19;20078;-52
2022/07/17 15:45:31;;;;;;;10.30;3.67;;;;;;;29.81;40.67;101208.00;7400751;19;20046;-53
2022/07/17 15:48:18;;;;;;;8.52;3.67;;;;;;;30.02;40.37;101210.81;7399222;19;20015;-51
2022/07/17 15:51:06;;;;;;;12.93;3.30;;;;;;;30.10;40.06;101211.34;7401255;19;20011;-53
2022/07/17 15:53:41;;;;;;;6.45;3.30;;;;;;;30.13;39.93;101208.34;7400419;19;20013;-52
2022/07/17 16:14:29;;;;;;;7.38;3.17;;;;;;;29.75;41.06;101195.56;7397136;19;20017;-48
2022/07/17 16:16:57;;;;;;;6.25;3.42;;;;;;;29.54;41.75;101192.28;7395827;19;20015;-50
2022/07/17 16:22:55;;;;;;;11.40;3.57;;;;;;;29.24;42.14;101175.88;7395873;19;20006;-53
2022/07/17 16:25:23;;;;;;;8.63;4.10;;;;;;;29.16;42.94;101180.22;7400224;19;20022;-49
2022/07/17 16:27:52;;;;;;;6.85;3.35;;;;;;;29.08;42.71;101180.94;7400933;19;20073;-53
2022/07/17 16:30:20;;;;;;;8.63;3.10;;;;;;;29.07;42.78;101177.28;7398218;19;20018;-51
2022/07/17 16:32:48;;;;;;;9.75;3.65;;;;;;;29.05;42.71;101181.84;7399824;19;20463;-52
2022/07/17 16:35:38;;;;;;;11.18;3.58;;;;;;;28.96;43.30;101179.75;7395131;19;20015;-50
2022/07/17 16:38:07;;;;;;;9.25;4.20;;;;;;;28.88;43.29;101176.34;7399622;19;20034;-50
2022/07/17 16:40:35;;;;;;;13.48;4.40;;;;;;;28.88;43.31;101179.19;7399996;19;20021;-50
2022/07/17 16:47:00;;;;;;;11.18;3.50;;;;;;;28.79;43.47;101175.44;7397492;19;20007;-53
2022/07/17 16:49:29;;;;;;;7.95;3.55;;;;;;;28.79;43.28;101164.84;7397565;19;20478;-49
2022/07/17 17:02:48;;;;;;;10.10;4.28;;;;;;;28.62;44.11;101151.22;7400531;19;20022;-48
2022/07/17 17:09:54;;;;;;;14.10;4.30;;;;;;;28.44;44.97;101154.63;7400048;19;20352;-57
2022/07/17 17:12:42;;;;;;;9.40;3.17;;;;;;;28.58;44.26;101136.25;7398668;19;20014;-50
2022/07/17 17:15:30;;;;;;;9.57;2.72;;;;;;;28.84;43.59;101132.91;7393860;19;20027;-56
2022/07/17 17:18:18;;;;;;;4.30;1.92;;;;;;;29.11;41.78;101129.50;7395419;19;20003;-56
2022/07/17 17:21:22;;;;;;;6.88;1.85;;;;;;;29.76;37.81;101128.66;7394623;19;20006;-57
2022/07/17 17:31:25;;;;;;;6.78;3.03;;;;;;;31.54;35.60;101129.16;7394054;19;20042;-57
2022/07/17 17:33:57;;;;;;;4.17;1.63;;;;;;;31.68;35.04;101120.69;7398462;19;20329;-57
2022/07/17 17:37:05;;;;;;;4.55;2.08;;;;;;;31.84;33.53;101128.91;7387540;19;20070;-55
2022/07/17 17:50:15;;;;;;;3.38;1.75;;;;;;;32.37;32.69;101120.56;7398190;19;20017;-58
2022/07/17 17:53:03;;;;;;;3.40;1.90;;;;;;;32.22;32.83;101121.75;7399410;19;20025;-59
2022/07/17 18:09:31;;;;;;;5.05;1.55;;;;;;;30.97;34.21;101125.22;7389093;19;20014;-55
2022/07/17 18:12:01;;;;;;;2.90;1.20;;;;;;;30.88;34.24;101122.34;7393733;19;20045;-55
2022/07/17 18:14:31;;;;;;;5.95;2.47;;;;;;;30.92;34.16;101118.09;7397381;19;20045;-55
2022/07/17 18:20:24;;;;;;;5.28;1.83;;;;;;;30.91;34.70;101112.81;7395487;19;20014;-54
2022/07/17 18:23:11;;;;;;;7.13;1.50;;;;;;;30.73;34.59;101117.25;7393129;19;20391;-54
2022/07/17 18:33:29;;;;;;;5.60;1.33;;;;;;;30.14;34.96;101109.97;7400450;19;20010;-55
2022/07/17 18:35:57;;;;;;;5.30;1.50;;;;;;;30.09;35.70;101118.34;7401737;19;20015;-55
2022/07/17 18:38:24;;;;;;;3.45;1.70;;;;;;;30.11;35.64;101118.69;7403199;19;20010;-51
2022/07/17 18:40:52;;;;;;;6.95;2.20;;;;;;;30.12;35.51;101120.28;7403876;19;20482;-54
2022/07/17 18:43:22;;;;;;;10.73;1.67;;;;;;;30.05;35.39;101112.00;7401935;19;20029;-52
2022/07/17 18:45:50;;;;;;;6.80;1.80;;;;;;;29.96;35.53;101114.81;7402807;19;20035;-59
2022/07/17 18:48:38;;;;;;;4.35;2.35;;;;;;;29.84;35.68;101118.59;7403865;19;20404;-55
2022/07/17 18:51:26;;;;;;;6.50;1.98;;;;;;;29.69;36.35;101114.66;7405579;19;20332;-55
2022/07/17 18:54:14;;;;;;;6.00;1.73;;;;;;;29.68;36.23;101115.94;7402374;19;20478;-55
2022/07/17 18:57:03;;;;;;;3.45;1.55;;;;;;;29.72;35.77;101117.38;7403858;19;20035;-54
2022/07/17 19:07:09;;;;;;;4.97;1.93;;;;;;;29.57;36.39;101116.34;7398700;19;20471;-60
2022/07/17 19:09:40;;;;;;;5.80;1.50;;;;;;;29.51;36.50;101112.50;7403911;19;20019;-52
2022/07/17 19:16:03;;;;;;;5.13;1.42;;;;;;;29.41;36.37;101120.22;7400182;19;20019;-56
2022/07/17 19:18:52;;;;;;;7.25;1.90;;;;;;;29.37;36.58;101119.56;7403280;19;20017;-55
2022/07/17 19:21:58;;;;;;;7.72;1.48;;;;;;;29.27;36.52;101120.75;7403870;19;20526;-56
2022/07/17 19:24:50;;;;;;;5.00;2.15;;;;;;;29.19;36.44;101119.41;7399689;19;20366;-59
2022/07/17 19:31:18;;;;;;;3.83;1.70;;;;;;;28.92;36.89;101122.03;7398161;19;20022;-54
2022/07/17 19:41:06;;;;;;;2.13;1.13;;;;;;;28.56;37.37;101130.22;7402865;19;20023;-56
2022/07/17 19:43:54;;;;;;;6.85;1.73;;;;;;;28.42;37.26;101133.56;7403658;19;20486;-55
2022/07/17 19:54:24;;;;;;;4.00;1.30;;;;;;;28.16;37.90;101142.16;7400236;19;20460;-54
2022/07/17 20:11:49;;;;;;;3.20;1.70;;;;;;;27.59;38.80;101145.13;7396071;19;20405;-52
2022/07/17 20:29:29;;;;;;;4.82;1.48;;;;;;;27.09;39.21;101140.88;7394762;19;20014;-53
2022/07/17 20:31:57;;;;;;;4.03;1.33;;;;;;;27.11;38.69;101152.59;7397641;19;20030;-53
2022/07/17 20:34:44;;;;;;;4.85;1.42;;;;;;;27.03;38.78;101151.19;7393739;19;20096;-52
2022/07/17 20:37:12;;;;;;;3.38;1.30;;;;;;;27.02;38.46;101161.00;7395005;19;20018;-54
2022/07/17 20:39:39;;;;;;;4.00;0.95;;;;;;;27.00;38.34;101154.97;7397641;19;20014;-54